createdAt,value
2022-08-18T00:01:50.001Z,28.00
2022-08-18T00:04:34.674Z,28.00
2022-08-18T00:07:03.044Z,27.90
2022-08-18T00:09:32.466Z,27.90
2022-08-18T00:12:03.323Z,27.90
2022-08-18T00:14:30.356Z,27.80
2022-08-18T00:16:57.539Z,27.90
2022-08-18T00:19:47.317Z,27.90
2022-08-18T00:22:16.011Z,27.90
2022-08-18T00:24:48.571Z,27.80
2022-08-18T00:27:23.455Z,27.80
2022-08-18T00:29:52.907Z,27.80
2022-08-18T00:32:34.577Z,27.80
2022-08-18T00:35:14.481Z,27.90
2022-08-18T00:37:42.939Z,27.90
2022-08-18T00:40:12.867Z,27.90
2022-08-18T00:42:45.527Z,27.90
2022-08-18T00:45:16.678Z,27.90
2022-08-18T00:47:43.675Z,28.10
2022-08-18T00:50:22.305Z,28.10
2022-08-18T00:53:15.265Z,28.10
2022-08-18T00:55:54.535Z,28.10
2022-08-18T00:58:49.236Z,28.10
2022-08-18T01:01:19.489Z,28.10
2022-08-18T01:03:53.128Z,28.10
2022-08-18T01:06:39.505Z,28.30
2022-08-18T01:09:08.604Z,28.30
2022-08-18T01:11:38.320Z,28.40
2022-08-18T01:14:09.820Z,28.40
2022-08-18T01:16:57.541Z,28.40
2022-08-18T01:19:45.008Z,28.30
2022-08-18T01:22:25.887Z,28.40
2022-08-18T01:25:15.673Z,28.40
2022-08-18T01:27:43.303Z,28.40
2022-08-18T01:30:15.025Z,28.50
2022-08-18T01:32:46.019Z,28.50
2022-08-18T01:35:15.164Z,28.60
2022-08-18T01:37:42.356Z,28.60
2022-08-18T01:41:24.658Z,28.50
2022-08-18T01:42:58.233Z,28.50
2022-08-18T01:45:26.804Z,28.40
2022-08-18T01:47:53.728Z,29.00
2022-08-18T01:50:20.734Z,28.40
2022-08-18T01:52:48.581Z,28.40
2022-08-18T01:55:15.704Z,28.40
2022-08-18T01:57:45.208Z,28.50
2022-08-18T02:00:19.121Z,28.50
2022-08-18T02:02:47.230Z,28.50
2022-08-18T02:05:36.036Z,28.50
2022-08-18T02:08:03.850Z,28.50
2022-08-18T02:10:31.543Z,28.70
2022-08-18T02:12:58.750Z,28.70
2022-08-18T02:15:25.912Z,28.90
2022-08-18T02:17:53.110Z,28.80
2022-08-18T02:20:20.597Z,28.80
2022-08-18T02:22:48.430Z,28.80
2022-08-18T02:25:17.121Z,28.80
2022-08-18T02:27:45.976Z,28.70
2022-08-18T02:30:16.641Z,28.80
2022-08-18T02:32:43.920Z,28.90
2022-08-18T02:35:14.140Z,29.20
2022-08-18T02:37:42.548Z,29.40
2022-08-18T02:40:15.171Z,29.60
2022-08-18T02:42:43.388Z,29.60
2022-08-18T02:45:11.139Z,29.60
2022-08-18T02:47:38.310Z,29.70
2022-08-18T02:50:05.997Z,29.70
2022-08-18T02:52:34.724Z,29.70
2022-08-18T02:55:02.498Z,29.80
2022-08-18T02:57:31.110Z,29.60
2022-08-18T02:59:58.083Z,29.60
2022-08-18T03:02:27.373Z,29.50
2022-08-18T03:04:54.382Z,29.60
2022-08-18T03:07:21.381Z,29.60
2022-08-18T03:09:48.471Z,29.70
2022-08-18T03:12:15.777Z,29.70
2022-08-18T03:14:43.718Z,29.60
2022-08-18T03:17:10.748Z,29.70
2022-08-18T03:19:38.448Z,29.70
2022-08-18T03:22:27.663Z,29.60
2022-08-18T03:24:55.470Z,29.60
2022-08-18T03:27:25.407Z,29.70
2022-08-18T03:29:52.569Z,29.70
2022-08-18T03:32:19.593Z,29.60
2022-08-18T03:34:46.568Z,29.60
2022-08-18T03:37:16.134Z,29.50
2022-08-18T03:39:43.195Z,29.50
2022-08-18T03:42:10.462Z,29.60
2022-08-18T03:44:37.537Z,29.50
2022-08-18T03:47:08.967Z,29.40
2022-08-18T03:49:36.744Z,29.50
2022-08-18T03:52:07.650Z,29.50
2022-08-18T03:54:34.622Z,29.40
2022-08-18T03:57:01.735Z,29.40
2022-08-18T03:59:32.035Z,29.40
2022-08-18T04:01:59.386Z,29.30
2022-08-18T04:04:28.459Z,29.30
2022-08-18T04:07:04.789Z,29.30
2022-08-18T04:09:33.376Z,29.40
2022-08-18T04:12:15.534Z,29.50
2022-08-18T04:14:48.189Z,29.70
2022-08-18T04:17:16.555Z,29.90
2022-08-18T04:19:43.499Z,29.90
2022-08-18T04:22:11.383Z,30.00
2022-08-18T04:24:46.353Z,30.00
2022-08-18T04:27:13.345Z,29.90
2022-08-18T04:29:40.336Z,30.00
2022-08-18T04:32:07.639Z,30.00
2022-08-18T04:34:35.725Z,29.90
2022-08-18T04:37:03.436Z,30.00
2022-08-18T04:39:30.950Z,30.00
2022-08-18T04:41:59.749Z,30.00
2022-08-18T04:44:26.731Z,29.80
2022-08-18T04:46:54.706Z,29.60
2022-08-18T04:49:26.103Z,29.60
2022-08-18T04:52:37.404Z,29.40
2022-08-18T04:55:01.878Z,29.50
2022-08-18T04:57:32.957Z,29.50
2022-08-18T05:00:01.277Z,29.60
2022-08-18T05:02:28.466Z,29.60
2022-08-18T05:04:55.461Z,29.60
2022-08-18T05:07:23.149Z,29.60
2022-08-18T05:09:52.088Z,30.00
2022-08-18T05:12:19.392Z,29.60
2022-08-18T05:14:51.237Z,29.30
2022-08-18T05:17:18.232Z,29.30
2022-08-18T05:19:45.946Z,29.30
2022-08-18T05:22:18.388Z,29.20
2022-08-18T05:24:45.667Z,29.10
2022-08-18T05:27:13.210Z,29.00
2022-08-18T05:29:45.776Z,28.80
2022-08-18T05:32:38.334Z,28.60
2022-08-18T05:35:04.719Z,28.60
2022-08-18T05:37:39.440Z,28.50
2022-08-18T05:40:11.254Z,28.40
2022-08-18T05:42:39.833Z,28.40
2022-08-18T05:45:13.903Z,28.20
2022-08-18T05:47:40.981Z,28.10
2022-08-18T05:50:10.583Z,28.10
2022-08-18T05:52:40.430Z,28.00
2022-08-18T05:55:29.021Z,28.00
2022-08-18T05:58:02.013Z,28.00
2022-08-18T06:00:29.908Z,27.90
2022-08-18T06:03:15.250Z,27.90
2022-08-18T06:05:49.768Z,27.80
2022-08-18T06:08:17.675Z,27.80
2022-08-18T06:10:47.709Z,27.80
2022-08-18T06:13:14.676Z,27.70
2022-08-18T06:16:00.186Z,27.80
2022-08-18T06:18:27.461Z,27.70
2022-08-18T06:21:00.389Z,27.60
2022-08-18T06:23:36.447Z,27.50
2022-08-18T06:26:06.157Z,27.40
2022-08-18T06:28:52.653Z,27.30
2022-08-18T06:31:27.403Z,27.20
2022-08-18T06:34:14.667Z,27.20
2022-08-18T06:36:57.028Z,27.20
2022-08-18T06:39:33.294Z,27.10
2022-08-18T06:42:00.231Z,27.60
2022-08-18T06:44:31.482Z,27.40
2022-08-18T06:47:04.762Z,27.40
2022-08-18T06:49:31.562Z,27.80
2022-08-18T06:51:58.390Z,27.50
2022-08-18T06:54:28.019Z,27.50
2022-08-18T06:56:56.134Z,27.60
2022-08-18T06:59:28.308Z,27.50
2022-08-18T07:02:01.595Z,27.60
2022-08-18T07:04:39.415Z,27.40
2022-08-18T07:07:13.843Z,27.00
2022-08-18T07:09:40.797Z,27.10
2022-08-18T07:12:09.228Z,26.80
2022-08-18T07:14:44.080Z,27.00
2022-08-18T07:17:12.259Z,27.20
2022-08-18T07:19:39.209Z,27.00
2022-08-18T07:22:06.685Z,27.00
2022-08-18T07:24:38.823Z,27.00
2022-08-18T07:27:10.907Z,27.00
2022-08-18T07:29:40.081Z,26.90
2022-08-18T07:32:21.018Z,26.80
2022-08-18T07:34:53.334Z,26.80
2022-08-18T07:37:30.257Z,26.60
2022-08-18T07:40:01.472Z,25.90
2022-08-18T07:42:54.180Z,26.10
2022-08-18T07:45:31.705Z,25.60
2022-08-18T07:48:34.947Z,25.10
2022-08-18T07:51:11.304Z,24.90
2022-08-18T07:53:55.964Z,24.40
2022-08-18T07:56:44.242Z,24.50
2022-08-18T07:59:35.203Z,24.80
2022-08-18T08:02:04.978Z,24.80
2022-08-18T08:04:34.686Z,24.90
2022-08-18T08:07:28.477Z,24.90
2022-08-18T08:10:13.897Z,24.90
2022-08-18T08:12:41.301Z,25.40
2022-08-18T08:15:08.149Z,25.00
2022-08-18T08:17:43.104Z,24.80
2022-08-18T08:20:09.909Z,24.30
2022-08-18T08:22:45.473Z,23.80
2022-08-18T08:25:45.820Z,23.70
2022-08-18T08:28:31.583Z,23.80
2022-08-18T08:31:34.961Z,23.30
2022-08-18T08:34:05.260Z,22.80
2022-08-18T08:36:34.645Z,22.70
2022-08-18T08:39:28.804Z,22.70
2022-08-18T08:42:00.383Z,22.70
2022-08-18T08:44:59.961Z,23.60
2022-08-18T08:47:46.103Z,23.50
2022-08-18T08:50:30.471Z,23.40
2022-08-18T08:53:01.083Z,23.40
2022-08-18T08:55:40.426Z,23.70
2022-08-18T08:58:13.255Z,23.80
2022-08-18T09:00:41.015Z,23.70
2022-08-18T09:03:13.746Z,23.70
2022-08-18T09:05:57.154Z,23.90
2022-08-18T09:08:42.966Z,23.90
2022-08-18T09:11:21.633Z,24.20
2022-08-18T09:13:54.585Z,23.80
2022-08-18T09:16:27.755Z,23.70
2022-08-18T09:18:54.965Z,24.10
2022-08-18T09:21:21.752Z,24.30
2022-08-18T09:23:51.259Z,24.20
2022-08-18T09:26:23.946Z,24.20
2022-08-18T09:29:10.845Z,24.60
2022-08-18T09:31:38.690Z,24.60
2022-08-18T09:34:25.958Z,24.90
2022-08-18T09:36:56.417Z,24.60
2022-08-18T09:42:48.617Z,25.20
2022-08-18T09:45:37.227Z,25.30
2022-08-18T09:48:13.173Z,24.90
2022-08-18T09:50:52.334Z,25.00
2022-08-18T09:53:33.294Z,24.90
2022-08-18T09:56:04.829Z,25.50
2022-08-18T09:58:47.577Z,25.60
2022-08-18T10:01:32.443Z,25.30
2022-08-18T10:04:15.319Z,25.40
2022-08-18T10:06:48.916Z,25.50
2022-08-18T10:09:26.987Z,25.60
2022-08-18T10:12:15.845Z,25.40
2022-08-18T10:14:45.673Z,25.30
2022-08-18T10:17:36.032Z,25.50
2022-08-18T10:20:23.919Z,25.50
2022-08-18T10:22:54.561Z,25.00
2022-08-18T10:25:41.189Z,25.10
2022-08-18T10:28:11.829Z,25.00
2022-08-18T10:30:56.659Z,24.30
2022-08-18T10:33:44.060Z,24.40
2022-08-18T10:36:30.804Z,24.00
2022-08-18T10:38:57.710Z,24.20
2022-08-18T10:41:30.660Z,24.50
2022-08-18T10:43:59.207Z,24.10
2022-08-18T10:46:31.927Z,24.00
2022-08-18T10:49:04.344Z,23.90
2022-08-18T10:52:00.200Z,24.00
2022-08-18T10:54:51.858Z,23.80
2022-08-18T10:57:33.444Z,23.60
2022-08-18T11:00:17.485Z,23.50
2022-08-18T11:02:48.661Z,23.80
2022-08-18T11:05:18.442Z,23.70
2022-08-18T11:07:52.098Z,23.90
2022-08-18T11:10:57.903Z,23.60
2022-08-18T11:13:21.826Z,23.50
2022-08-18T11:16:10.367Z,23.30
2022-08-18T11:18:42.741Z,23.40
2022-08-18T11:21:24.209Z,23.70
2022-08-18T11:24:04.845Z,23.30
2022-08-18T11:26:33.106Z,23.40
2022-08-18T11:29:01.416Z,23.00
2022-08-18T11:31:29.266Z,23.60
2022-08-18T11:33:57.232Z,22.70
2022-08-18T11:36:31.334Z,22.90
2022-08-18T11:38:58.786Z,23.00
2022-08-18T11:41:47.916Z,23.00
2022-08-18T11:44:17.442Z,22.60
2022-08-18T11:46:46.357Z,22.60
2022-08-18T11:49:26.064Z,22.50
2022-08-18T11:52:02.975Z,22.50
2022-08-18T11:54:50.550Z,22.20
2022-08-18T11:57:31.834Z,22.20
2022-08-18T12:00:00.561Z,22.30
2022-08-18T12:02:28.138Z,21.90
2022-08-18T12:05:10.466Z,21.40
2022-08-18T12:07:45.348Z,21.10
2022-08-18T12:10:29.074Z,21.50
2022-08-18T12:13:00.728Z,22.00
2022-08-18T12:15:43.937Z,22.20
2022-08-18T12:21:02.839Z,21.80
2022-08-18T12:23:38.916Z,21.80
2022-08-18T12:26:27.110Z,21.40
2022-08-18T12:29:01.638Z,21.60
2022-08-18T12:31:28.959Z,21.40
2022-08-18T12:34:09.075Z,21.40
2022-08-18T12:36:40.577Z,21.40
2022-08-18T12:39:07.749Z,21.40
2022-08-18T12:41:36.507Z,21.00
2022-08-18T12:44:03.488Z,20.80
2022-08-18T12:46:36.893Z,20.90
2022-08-18T12:49:04.793Z,21.20
2022-08-18T12:51:32.732Z,20.80
2022-08-18T12:54:00.330Z,20.20
2022-08-18T12:56:30.626Z,19.70
2022-08-18T12:59:04.440Z,20.10
2022-08-18T13:01:32.581Z,19.80
2022-08-18T13:04:11.044Z,20.10
2022-08-18T13:06:54.110Z,20.40
2022-08-18T13:09:34.227Z,20.30
2022-08-18T13:12:14.715Z,20.40
2022-08-18T13:14:43.473Z,20.00
2022-08-18T13:17:15.252Z,19.80
2022-08-18T13:19:57.016Z,19.10
2022-08-18T13:22:32.622Z,18.60
2022-08-18T13:25:05.504Z,18.80
2022-08-18T13:27:32.841Z,18.60
2022-08-18T13:30:02.629Z,18.70
2022-08-18T13:32:38.322Z,18.80
2022-08-18T13:35:14.235Z,18.90
2022-08-18T13:37:43.797Z,19.30
2022-08-18T13:40:12.647Z,19.40
2022-08-18T13:42:51.110Z,19.30
2022-08-18T13:45:23.064Z,19.70
2022-08-18T13:47:52.623Z,20.10
2022-08-18T13:50:21.029Z,20.90
2022-08-18T13:52:58.129Z,22.00
2022-08-18T13:55:26.424Z,22.80
2022-08-18T13:57:53.794Z,23.20
2022-08-18T14:00:29.520Z,23.40
2022-08-18T14:02:58.983Z,23.20
2022-08-18T14:05:36.661Z,23.50
2022-08-18T14:08:19.034Z,23.90
2022-08-18T14:10:51.121Z,24.00
2022-08-18T14:13:20.496Z,24.10
2022-08-18T14:15:53.867Z,24.10
2022-08-18T14:18:22.467Z,24.20
2022-08-18T14:21:15.313Z,24.30
2022-08-18T14:24:00.711Z,24.40
2022-08-18T14:26:46.499Z,24.40
2022-08-18T14:29:17.828Z,24.00
2022-08-18T14:32:05.270Z,24.30
2022-08-18T14:34:32.094Z,24.20
2022-08-18T14:36:58.883Z,24.20
2022-08-18T14:39:25.874Z,23.90
2022-08-18T14:41:55.783Z,24.00
2022-08-18T14:44:24.785Z,24.10
2022-08-18T14:46:57.714Z,24.20
2022-08-18T14:49:29.118Z,24.40
2022-08-18T14:52:00.871Z,24.30
2022-08-18T14:54:28.702Z,24.40
2022-08-18T14:56:57.156Z,24.70
2022-08-18T14:59:25.566Z,24.80
2022-08-18T15:01:53.485Z,24.90
2022-08-18T15:04:21.039Z,25.00
2022-08-18T15:06:55.871Z,24.90
2022-08-18T15:09:26.795Z,25.00
2022-08-18T15:11:56.563Z,25.20
2022-08-18T15:14:32.996Z,25.00
2022-08-18T15:17:13.325Z,25.10
2022-08-18T15:20:00.447Z,24.90
2022-08-18T15:22:46.353Z,25.00
2022-08-18T15:25:33.444Z,25.30
2022-08-18T15:28:00.679Z,25.20
2022-08-18T15:30:28.095Z,25.10
2022-08-18T15:32:55.460Z,25.50
2022-08-18T15:35:22.422Z,25.30
2022-08-18T15:37:51.383Z,25.40
2022-08-18T15:40:35.477Z,25.30
2022-08-18T15:43:09.551Z,25.20
2022-08-18T15:45:43.228Z,25.30
2022-08-18T15:48:24.021Z,25.30
2022-08-18T15:50:51.407Z,25.40
2022-08-18T15:53:30.084Z,25.50
2022-08-18T15:55:57.989Z,25.60
2022-08-18T15:58:26.937Z,25.70
2022-08-18T16:00:56.598Z,26.00
2022-08-18T16:03:25.974Z,26.20
2022-08-18T16:05:54.216Z,26.30
2022-08-18T16:08:22.201Z,26.20
2022-08-18T16:10:49.109Z,26.30
2022-08-18T16:13:16.253Z,26.30
2022-08-18T16:15:46.862Z,26.50
2022-08-18T16:18:14.275Z,26.70
2022-08-18T16:20:41.763Z,26.80
2022-08-18T16:23:08.724Z,27.00
2022-08-18T16:25:38.188Z,27.40
2022-08-18T16:28:05.459Z,27.70
2022-08-18T16:30:33.716Z,28.10
2022-08-18T16:33:03.630Z,28.40
2022-08-18T16:35:31.456Z,28.40
2022-08-18T16:38:02.453Z,28.90
2022-08-18T16:40:30.550Z,29.50
2022-08-18T16:43:00.216Z,29.80
2022-08-18T16:45:27.840Z,29.80
2022-08-18T16:47:55.001Z,29.80
2022-08-18T16:50:23.593Z,29.90
2022-08-18T16:52:50.621Z,30.00
2022-08-18T16:55:17.750Z,30.00
2022-08-18T16:58:03.300Z,30.00
2022-08-18T17:00:51.537Z,30.00
2022-08-18T17:03:41.004Z,30.70
2022-08-18T17:06:09.587Z,31.60
2022-08-18T17:08:37.533Z,32.60
2022-08-18T17:11:05.901Z,32.90
2022-08-18T17:13:33.015Z,33.00
2022-08-18T17:15:59.909Z,33.30
2022-08-18T17:18:27.380Z,34.20
2022-08-18T17:20:55.477Z,34.60
2022-08-18T17:23:22.783Z,34.70
2022-08-18T17:25:50.413Z,34.60
2022-08-18T17:28:19.477Z,34.50
2022-08-18T17:30:51.369Z,34.80
2022-08-18T17:33:37.637Z,34.80
2022-08-18T17:36:05.972Z,35.20
2022-08-18T17:38:38.455Z,35.20
2022-08-18T17:41:06.244Z,36.00
2022-08-18T17:43:34.689Z,36.00
2022-08-18T17:46:05.455Z,35.80
2022-08-18T17:48:40.985Z,35.30
2022-08-18T17:51:31.600Z,35.40
2022-08-18T17:54:01.243Z,35.10
2022-08-18T17:56:38.161Z,35.30
2022-08-18T17:59:07.937Z,35.20
2022-08-18T18:02:29.509Z,34.50
2022-08-18T18:04:58.257Z,34.50
2022-08-18T18:07:32.990Z,34.20
2022-08-18T18:10:05.274Z,34.30
2022-08-18T18:12:33.592Z,34.10
2022-08-18T18:15:02.369Z,33.20
2022-08-18T18:17:31.123Z,34.00
2022-08-18T18:20:15.563Z,35.20
2022-08-18T18:22:43.360Z,35.00
2022-08-18T18:25:11.334Z,34.40
2022-08-18T18:27:43.706Z,34.30
2022-08-18T18:30:27.584Z,34.30
2022-08-18T18:33:03.135Z,33.10
2022-08-18T18:35:49.987Z,32.90
2022-08-18T18:38:49.113Z,32.20
2022-08-18T18:41:26.616Z,31.70
2022-08-18T18:44:04.349Z,32.40
2022-08-18T18:46:33.409Z,32.60
2022-08-18T18:49:19.102Z,32.40
2022-08-18T18:52:04.525Z,31.70
2022-08-18T18:54:34.289Z,32.10
2022-08-18T18:57:02.879Z,32.60
2022-08-18T18:59:35.411Z,32.10
2022-08-18T19:02:05.377Z,31.10
2022-08-18T19:05:03.972Z,30.90
2022-08-18T19:07:33.474Z,30.60
2022-08-18T19:10:03.186Z,30.40
2022-08-18T19:12:51.662Z,30.20
2022-08-18T19:15:19.899Z,30.30
2022-08-18T19:17:52.309Z,30.00
2022-08-18T19:20:22.437Z,30.10
2022-08-18T19:22:54.773Z,30.20
2022-08-18T19:25:25.441Z,30.10
2022-08-18T19:28:07.938Z,31.00
2022-08-18T19:30:36.987Z,32.20
2022-08-18T19:33:04.813Z,33.80
2022-08-18T19:35:39.521Z,35.50
2022-08-18T19:38:21.497Z,36.80
2022-08-18T19:40:54.617Z,37.50
2022-08-18T19:43:40.917Z,38.80
2022-08-18T19:46:19.073Z,39.60
2022-08-18T19:48:53.686Z,42.10
2022-08-18T19:51:32.528Z,42.30
2022-08-18T19:54:04.269Z,42.70
2022-08-18T19:56:46.226Z,43.50
2022-08-18T19:59:35.157Z,42.70
2022-08-18T20:02:10.567Z,43.00
2022-08-18T20:04:46.230Z,43.30
2022-08-18T20:07:27.518Z,44.30
2022-08-18T20:09:54.383Z,43.40
2022-08-18T20:12:27.281Z,43.30
2022-08-18T20:15:11.104Z,43.70
2022-08-18T20:18:11.361Z,44.30
2022-08-18T20:20:38.428Z,43.80
2022-08-18T20:23:23.729Z,42.10
2022-08-18T20:25:50.596Z,41.20
2022-08-18T20:28:26.071Z,41.60
2022-08-18T20:30:52.862Z,41.20
2022-08-18T20:33:23.046Z,42.00
2022-08-18T20:36:04.287Z,42.50
2022-08-18T20:38:35.733Z,42.90
2022-08-18T20:41:29.144Z,42.90
2022-08-18T20:43:59.031Z,42.80
2022-08-18T20:46:36.202Z,41.90
2022-08-18T20:49:23.211Z,41.20
2022-08-18T20:52:04.165Z,40.30
2022-08-18T20:54:57.547Z,39.90
2022-08-18T20:57:27.370Z,39.40
2022-08-18T21:00:02.225Z,38.60
2022-08-18T21:02:31.791Z,38.30
2022-08-18T21:05:00.383Z,37.40
2022-08-18T21:07:37.745Z,36.80
2022-08-18T21:10:25.457Z,36.30
2022-08-18T21:12:54.181Z,36.40
2022-08-18T21:15:27.854Z,35.80
2022-08-18T21:18:00.095Z,35.50
2022-08-18T21:20:27.281Z,34.80
2022-08-18T21:23:08.556Z,34.20
2022-08-18T21:25:37.722Z,34.40
2022-08-18T21:28:05.757Z,34.60
2022-08-18T21:30:32.779Z,34.50
2022-08-18T21:33:00.209Z,34.40
2022-08-18T21:35:31.593Z,34.40
2022-08-18T21:38:08.212Z,34.40
2022-08-18T21:40:35.183Z,34.50
2022-08-18T21:43:02.443Z,34.20
2022-08-18T21:45:30.212Z,34.00
2022-08-18T21:48:02.103Z,33.90
2022-08-18T21:50:33.424Z,33.00
2022-08-18T21:53:01.912Z,32.60
2022-08-18T21:55:31.888Z,33.80
2022-08-18T21:58:04.246Z,33.90
2022-08-18T22:00:41.855Z,33.70
2022-08-18T22:03:19.775Z,33.80
2022-08-18T22:06:07.003Z,34.00
2022-08-18T22:08:44.120Z,34.00
2022-08-18T22:12:01.828Z,33.80
2022-08-18T22:14:35.805Z,33.90
2022-08-18T22:17:33.163Z,33.80
2022-08-18T22:20:18.878Z,33.80
2022-08-18T22:23:08.871Z,34.90
2022-08-18T22:25:35.826Z,35.00
2022-08-18T22:28:02.788Z,34.80
2022-08-18T22:30:29.720Z,34.60
2022-08-18T22:32:56.673Z,34.80
2022-08-18T22:35:24.172Z,35.30
2022-08-18T22:37:51.580Z,34.50
2022-08-18T22:40:21.988Z,34.70
2022-08-18T22:42:49.164Z,34.50
2022-08-18T22:45:16.334Z,34.40
2022-08-18T22:47:45.159Z,34.40
2022-08-18T22:50:13.014Z,34.40
2022-08-18T22:52:46.071Z,34.40
2022-08-18T22:55:14.347Z,34.50
2022-08-18T22:57:42.040Z,34.50
2022-08-18T23:00:17.076Z,34.40
2022-08-18T23:02:45.384Z,34.80
2022-08-18T23:05:12.700Z,35.00
2022-08-18T23:07:39.812Z,34.90
2022-08-18T23:10:13.798Z,34.30
2022-08-18T23:12:44.480Z,34.10
2022-08-18T23:15:14.043Z,34.40
2022-08-18T23:17:41.869Z,34.00
2022-08-18T23:20:12.141Z,33.60
2022-08-18T23:22:44.680Z,33.50
2022-08-18T23:25:11.898Z,33.70
2022-08-18T23:27:39.601Z,33.00
2022-08-18T23:30:06.857Z,33.00
2022-08-18T23:32:33.809Z,33.20
2022-08-18T23:35:01.111Z,33.50
2022-08-18T23:37:28.003Z,34.00
2022-08-18T23:39:56.482Z,34.20
2022-08-18T23:42:24.030Z,34.10
2022-08-18T23:44:50.910Z,33.60
2022-08-18T23:47:19.677Z,33.30
2022-08-18T23:49:46.946Z,33.70
2022-08-18T23:52:14.373Z,33.40
2022-08-18T23:54:41.294Z,33.60
2022-08-18T23:57:08.168Z,33.10
2022-08-18T23:59:35.301Z,33.70
